createdAt,value
2022-11-26T00:00:30.704Z,6.27
2022-11-26T00:01:01.794Z,6.27
2022-11-26T00:01:34.161Z,6.27
2022-11-26T00:02:05.714Z,6.27
2022-11-26T00:02:33.651Z,6.27
2022-11-26T00:02:54.035Z,6.27
2022-11-26T00:03:25.717Z,6.27
2022-11-26T00:03:58.410Z,6.22
2022-11-26T00:04:29.923Z,6.22
2022-11-26T00:05:02.457Z,6.22
2022-11-26T00:05:33.900Z,6.22
2022-11-26T00:06:06.348Z,6.22
2022-11-26T00:06:33.523Z,6.22
2022-11-26T00:06:54.190Z,6.22
2022-11-26T00:07:25.871Z,6.22
2022-11-26T00:07:57.680Z,6.22
2022-11-26T00:08:29.678Z,6.22
2022-11-26T00:09:01.730Z,6.22
2022-11-26T00:09:33.770Z,6.22
2022-11-26T00:10:05.753Z,6.22
2022-11-26T00:10:34.446Z,6.22
2022-11-26T00:10:53.907Z,6.22
2022-11-26T00:11:26.279Z,6.11
2022-11-26T00:11:57.976Z,6.11
2022-11-26T00:12:30.423Z,6.11
2022-11-26T00:13:01.818Z,6.11
2022-11-26T00:13:34.247Z,6.11
2022-11-26T00:14:05.515Z,6.11
2022-11-26T00:14:35.504Z,6.00
2022-11-26T00:14:53.692Z,6.00
2022-11-26T00:15:25.934Z,6.00
2022-11-26T00:15:43.064Z,6.00
2022-11-26T00:16:13.715Z,6.00
2022-11-26T00:16:34.317Z,6.00
2022-11-26T00:17:01.929Z,6.00
2022-11-26T00:17:33.579Z,6.11
2022-11-26T00:18:05.842Z,6.11
2022-11-26T00:18:35.680Z,6.11
2022-11-26T00:18:53.787Z,6.11
2022-11-26T00:19:25.631Z,6.11
2022-11-26T00:19:43.053Z,6.11
2022-11-26T00:20:13.827Z,6.11
2022-11-26T00:20:34.341Z,6.11
2022-11-26T00:21:01.751Z,6.11
2022-11-26T00:21:33.913Z,6.22
2022-11-26T00:22:06.685Z,6.27
2022-11-26T00:22:34.446Z,6.27
2022-11-26T00:22:53.727Z,6.27
2022-11-26T00:23:34.875Z,6.27
2022-11-26T00:24:14.513Z,6.22
2022-11-26T00:24:34.445Z,6.22
2022-11-26T00:25:01.881Z,6.22
2022-11-26T00:25:34.144Z,6.11
2022-11-26T00:26:05.738Z,6.11
2022-11-26T00:26:34.381Z,6.11
2022-11-26T00:26:53.722Z,6.11
2022-11-26T00:27:26.651Z,6.11
2022-11-26T00:27:57.711Z,6.11
2022-11-26T00:28:30.429Z,6.11
2022-11-26T00:29:02.811Z,6.11
2022-11-26T00:29:34.682Z,6.11
2022-11-26T00:30:06.035Z,6.11
2022-11-26T00:30:35.195Z,6.11
2022-11-26T00:30:53.776Z,6.11
2022-11-26T00:31:25.735Z,6.11
2022-11-26T00:31:58.843Z,6.11
2022-11-26T00:32:29.562Z,6.11
2022-11-26T00:33:03.100Z,6.00
2022-11-26T00:33:33.730Z,6.00
2022-11-26T00:34:06.978Z,6.00
2022-11-26T00:34:35.614Z,6.00
2022-11-26T00:34:53.557Z,6.00
2022-11-26T00:35:25.882Z,6.00
2022-11-26T00:35:42.112Z,6.00
2022-11-26T00:36:14.349Z,6.00
2022-11-26T00:36:34.429Z,5.88
2022-11-26T00:37:02.045Z,5.88
2022-11-26T00:37:33.714Z,5.88
2022-11-26T00:38:05.724Z,5.88
2022-11-26T00:38:34.433Z,5.88
2022-11-26T00:38:53.773Z,5.88
2022-11-26T00:39:26.690Z,5.88
2022-11-26T00:39:57.693Z,5.88
2022-11-26T00:40:30.858Z,5.88
2022-11-26T00:41:01.696Z,5.88
2022-11-26T00:41:34.619Z,5.88
2022-11-26T00:42:05.736Z,5.88
2022-11-26T00:42:35.426Z,5.88
2022-11-26T00:42:57.417Z,5.88
2022-11-26T00:43:25.613Z,5.88
2022-11-26T00:43:42.736Z,5.88
2022-11-26T00:44:13.853Z,5.88
2022-11-26T00:44:34.320Z,5.88
2022-11-26T00:45:01.902Z,5.88
2022-11-26T00:45:33.922Z,5.88
2022-11-26T00:46:06.596Z,5.88
2022-11-26T00:46:34.471Z,5.88
2022-11-26T00:46:53.771Z,5.88
2022-11-26T00:47:25.726Z,5.88
2022-11-26T00:47:57.586Z,5.88
2022-11-26T00:48:29.704Z,5.77
2022-11-26T00:49:01.756Z,5.77
2022-11-26T00:49:34.069Z,5.77
2022-11-26T00:50:05.783Z,5.72
2022-11-26T00:50:34.515Z,5.72
2022-11-26T00:50:53.821Z,5.72
2022-11-26T00:51:26.619Z,5.72
2022-11-26T00:51:57.612Z,5.72
2022-11-26T00:52:30.612Z,5.72
2022-11-26T00:53:01.732Z,5.72
2022-11-26T00:53:34.928Z,5.72
2022-11-26T00:54:05.692Z,5.72
2022-11-26T00:54:34.332Z,5.72
2022-11-26T00:54:53.616Z,5.72
2022-11-26T00:55:25.927Z,5.72
2022-11-26T00:55:42.166Z,5.72
2022-11-26T00:56:13.686Z,5.72
2022-11-26T00:56:38.017Z,5.72
2022-11-26T00:57:02.628Z,5.72
2022-11-26T00:57:33.828Z,5.61
2022-11-26T00:58:06.368Z,5.61
2022-11-26T00:58:34.298Z,5.61
2022-11-26T00:58:53.618Z,5.61
2022-11-26T00:59:25.709Z,5.61
2022-11-26T00:59:57.976Z,5.61
2022-11-26T01:00:29.796Z,5.61
2022-11-26T01:01:01.780Z,5.61
2022-11-26T01:01:34.651Z,5.61
2022-11-26T01:02:05.894Z,5.61
2022-11-26T01:02:34.733Z,5.61
2022-11-26T01:02:53.648Z,5.61
2022-11-26T01:03:26.745Z,5.50
2022-11-26T01:03:57.763Z,5.50
2022-11-26T01:04:30.422Z,5.50
2022-11-26T01:05:01.831Z,5.50
2022-11-26T01:05:35.088Z,5.50
2022-11-26T01:06:21.696Z,5.50
2022-11-26T01:06:54.555Z,5.50
2022-11-26T01:07:25.708Z,5.50
2022-11-26T01:07:58.852Z,5.50
2022-11-26T01:08:29.733Z,5.50
2022-11-26T01:09:02.577Z,5.50
2022-11-26T01:09:33.724Z,5.50
2022-11-26T01:10:06.871Z,5.50
2022-11-26T01:10:35.074Z,5.50
2022-11-26T01:10:53.716Z,5.38
2022-11-26T01:11:25.614Z,5.38
2022-11-26T01:11:42.331Z,5.38
2022-11-26T01:12:14.636Z,5.38
2022-11-26T01:12:34.377Z,5.38
2022-11-26T01:13:01.689Z,5.38
2022-11-26T01:13:33.627Z,5.38
2022-11-26T01:14:05.794Z,5.38
2022-11-26T01:14:34.533Z,5.38
2022-11-26T01:14:53.751Z,5.38
2022-11-26T01:15:26.805Z,5.38
2022-11-26T01:15:57.669Z,5.38
2022-11-26T01:16:30.624Z,5.38
2022-11-26T01:17:01.781Z,5.38
2022-11-26T01:17:34.168Z,5.38
2022-11-26T01:18:05.721Z,5.38
2022-11-26T01:18:35.449Z,5.38
2022-11-26T01:18:53.763Z,5.38
2022-11-26T01:19:25.574Z,5.38
2022-11-26T01:19:58.716Z,5.27
2022-11-26T01:20:29.792Z,5.27
2022-11-26T01:21:02.428Z,5.27
2022-11-26T01:21:33.589Z,5.27
2022-11-26T01:22:06.829Z,5.27
2022-11-26T01:22:34.440Z,5.27
2022-11-26T01:22:53.743Z,5.27
2022-11-26T01:23:25.695Z,5.27
2022-11-26T01:23:57.746Z,5.27
2022-11-26T01:24:30.023Z,5.27
2022-11-26T01:25:01.944Z,5.27
2022-11-26T01:25:33.772Z,5.27
2022-11-26T01:26:06.521Z,5.27
2022-11-26T01:26:34.526Z,5.27
2022-11-26T01:26:53.745Z,5.27
2022-11-26T01:27:26.580Z,5.27
2022-11-26T01:27:57.719Z,5.27
2022-11-26T01:28:30.446Z,5.27
2022-11-26T01:29:01.702Z,5.27
2022-11-26T01:29:35.773Z,5.27
2022-11-26T01:30:06.017Z,5.27
2022-11-26T01:30:35.613Z,5.27
2022-11-26T01:30:53.873Z,5.27
2022-11-26T01:31:25.733Z,5.27
2022-11-26T01:31:42.385Z,5.27
2022-11-26T01:32:14.431Z,5.27
2022-11-26T01:32:34.527Z,5.27
2022-11-26T01:33:02.317Z,5.27
2022-11-26T01:33:33.728Z,5.27
2022-11-26T01:34:05.915Z,5.27
2022-11-26T01:34:34.326Z,5.22
2022-11-26T01:34:53.844Z,5.27
2022-11-26T01:35:35.659Z,5.27
2022-11-26T01:35:58.012Z,5.27
2022-11-26T01:36:29.577Z,5.27
2022-11-26T01:37:01.768Z,5.38
2022-11-26T01:37:33.968Z,5.38
2022-11-26T01:38:05.904Z,5.38
2022-11-26T01:38:40.210Z,5.38
2022-11-26T01:39:09.662Z,5.50
2022-11-26T01:39:35.209Z,5.50
2022-11-26T01:39:58.446Z,5.50
2022-11-26T01:40:29.909Z,5.50
2022-11-26T01:41:02.614Z,5.50
2022-11-26T01:41:33.692Z,5.50
2022-11-26T01:42:06.450Z,5.50
2022-11-26T01:42:34.344Z,5.50
2022-11-26T01:42:53.570Z,5.50
2022-11-26T01:43:25.714Z,5.50
2022-11-26T01:43:42.312Z,5.50
2022-11-26T01:44:14.370Z,5.50
2022-11-26T01:44:34.748Z,5.50
2022-11-26T01:45:01.789Z,5.50
2022-11-26T01:45:33.830Z,5.38
2022-11-26T01:46:06.260Z,5.27
2022-11-26T01:46:34.576Z,5.27
2022-11-26T01:46:53.625Z,5.27
2022-11-26T01:47:26.734Z,5.27
2022-11-26T01:48:13.734Z,5.27
2022-11-26T01:48:34.471Z,5.27
2022-11-26T01:49:01.908Z,5.27
2022-11-26T01:49:34.722Z,5.27
2022-11-26T01:50:05.942Z,5.27
2022-11-26T01:50:35.203Z,5.27
2022-11-26T01:50:53.799Z,5.27
2022-11-26T01:51:25.614Z,5.27
2022-11-26T01:51:42.778Z,5.27
2022-11-26T01:52:13.794Z,5.27
2022-11-26T01:52:34.544Z,5.27
2022-11-26T01:53:01.860Z,5.27
2022-11-26T01:53:33.661Z,5.27
2022-11-26T01:54:06.676Z,5.27
2022-11-26T01:54:34.372Z,5.27
2022-11-26T01:54:53.632Z,5.27
2022-11-26T01:55:25.787Z,5.27
2022-11-26T01:55:42.383Z,5.27
2022-11-26T01:56:14.369Z,5.27
2022-11-26T01:56:34.504Z,5.27
2022-11-26T01:57:01.593Z,5.27
2022-11-26T01:57:34.377Z,5.27
2022-11-26T01:58:05.793Z,5.27
2022-11-26T01:58:39.492Z,5.27
2022-11-26T01:58:53.637Z,5.27
2022-11-26T01:59:26.531Z,5.27
2022-11-26T01:59:57.870Z,5.27
2022-11-26T02:00:31.050Z,5.27
2022-11-26T02:01:17.882Z,5.22
2022-11-26T02:01:49.862Z,5.22
2022-11-26T02:02:22.360Z,5.22
2022-11-26T02:02:54.544Z,5.11
2022-11-26T02:03:25.649Z,5.11
2022-11-26T02:03:58.623Z,5.11
2022-11-26T02:04:30.018Z,5.11
2022-11-26T02:05:02.677Z,5.11
2022-11-26T02:05:33.691Z,5.00
2022-11-26T02:06:06.489Z,5.00
2022-11-26T02:06:34.526Z,5.00
2022-11-26T02:06:53.881Z,5.00
2022-11-26T02:07:25.705Z,5.00
2022-11-26T02:07:57.955Z,5.00
2022-11-26T02:08:30.659Z,5.00
2022-11-26T02:09:01.618Z,5.00
2022-11-26T02:09:35.951Z,5.00
2022-11-26T02:10:06.007Z,5.00
2022-11-26T02:10:35.574Z,5.00
2022-11-26T02:10:54.131Z,4.88
2022-11-26T02:11:25.566Z,4.88
2022-11-26T02:11:58.892Z,4.88
2022-11-26T02:12:29.765Z,4.88
2022-11-26T02:13:02.606Z,4.88
2022-11-26T02:13:34.336Z,4.88
2022-11-26T02:14:06.953Z,4.88
2022-11-26T02:14:34.482Z,4.88
2022-11-26T02:14:53.741Z,4.88
2022-11-26T02:15:25.809Z,4.88
2022-11-26T02:15:42.309Z,4.88
2022-11-26T02:16:14.759Z,4.88
2022-11-26T02:16:34.384Z,4.88
2022-11-26T02:17:01.866Z,4.88
2022-11-26T02:17:33.724Z,4.88
2022-11-26T02:18:05.800Z,4.88
2022-11-26T02:18:36.738Z,4.88
2022-11-26T02:19:10.104Z,4.88
2022-11-26T02:19:34.461Z,4.88
2022-11-26T02:19:57.670Z,4.88
2022-11-26T02:20:29.955Z,4.88
2022-11-26T02:21:02.955Z,4.88
2022-11-26T02:21:33.582Z,4.88
2022-11-26T02:22:06.696Z,4.88
2022-11-26T02:22:34.432Z,4.88
2022-11-26T02:22:53.759Z,5.00
2022-11-26T02:23:25.606Z,5.00
2022-11-26T02:23:57.798Z,5.00
2022-11-26T02:24:29.980Z,5.00
2022-11-26T02:25:01.931Z,5.11
2022-11-26T02:25:33.581Z,5.11
2022-11-26T02:26:05.716Z,5.11
2022-11-26T02:26:34.560Z,5.11
2022-11-26T02:26:53.776Z,5.11
2022-11-26T02:27:26.460Z,5.11
2022-11-26T02:27:58.154Z,5.11
2022-11-26T02:28:30.447Z,5.22
2022-11-26T02:29:01.743Z,5.22
2022-11-26T02:29:34.986Z,5.22
2022-11-26T02:30:05.915Z,5.22
2022-11-26T02:30:37.859Z,5.22
2022-11-26T02:31:09.840Z,5.22
2022-11-26T02:31:34.620Z,5.27
2022-11-26T02:31:57.833Z,5.27
2022-11-26T02:32:29.640Z,5.27
2022-11-26T02:33:02.621Z,5.27
2022-11-26T02:33:34.203Z,5.27
2022-11-26T02:34:06.513Z,5.27
2022-11-26T02:34:37.430Z,5.27
2022-11-26T02:34:53.687Z,5.27
2022-11-26T02:35:25.945Z,5.27
2022-11-26T02:35:42.155Z,5.27
2022-11-26T02:36:14.560Z,5.27
2022-11-26T02:36:34.502Z,5.27
2022-11-26T02:37:01.595Z,5.27
2022-11-26T02:37:33.842Z,5.27
2022-11-26T02:38:05.856Z,5.27
2022-11-26T02:38:34.306Z,5.27
2022-11-26T02:38:53.906Z,5.22
2022-11-26T02:39:26.675Z,5.22
2022-11-26T02:39:57.774Z,5.22
2022-11-26T02:40:30.540Z,5.22
2022-11-26T02:41:01.843Z,5.22
2022-11-26T02:41:34.658Z,5.22
2022-11-26T02:42:05.915Z,5.22
2022-11-26T02:42:35.639Z,5.22
2022-11-26T02:42:53.740Z,5.22
2022-11-26T02:43:25.591Z,5.22
2022-11-26T02:43:58.867Z,5.22
2022-11-26T02:44:30.051Z,5.22
2022-11-26T02:45:02.870Z,5.11
2022-11-26T02:45:33.705Z,5.11
2022-11-26T02:46:06.734Z,5.11
2022-11-26T02:46:34.800Z,5.11
2022-11-26T02:46:53.839Z,5.00
2022-11-26T02:47:25.636Z,5.00
2022-11-26T02:47:42.266Z,5.00
2022-11-26T02:48:30.469Z,5.00
2022-11-26T02:49:01.777Z,5.11
2022-11-26T02:49:34.424Z,5.11
2022-11-26T02:50:05.920Z,5.11
2022-11-26T02:50:35.798Z,5.11
2022-11-26T02:50:53.893Z,5.11
2022-11-26T02:51:29.461Z,5.11
2022-11-26T02:51:43.452Z,5.11
2022-11-26T02:52:13.640Z,5.11
2022-11-26T02:52:34.335Z,5.11
2022-11-26T02:53:01.894Z,5.11
2022-11-26T02:53:34.188Z,5.11
2022-11-26T02:54:06.508Z,5.11
2022-11-26T02:54:34.543Z,5.11
2022-11-26T02:54:53.807Z,5.11
2022-11-26T02:55:26.271Z,5.11
2022-11-26T02:55:42.307Z,5.11
2022-11-26T02:56:14.537Z,5.11
2022-11-26T02:56:35.019Z,5.11
2022-11-26T02:57:01.885Z,5.11
2022-11-26T02:57:33.808Z,5.11
2022-11-26T02:58:05.660Z,5.11
2022-11-26T02:58:34.496Z,5.11
2022-11-26T02:58:53.763Z,5.11
2022-11-26T02:59:26.510Z,5.00
2022-11-26T02:59:57.783Z,5.00
2022-11-26T03:00:30.865Z,5.00
2022-11-26T03:01:01.838Z,5.00
2022-11-26T03:01:34.824Z,5.00
2022-11-26T03:02:05.603Z,5.00
2022-11-26T03:02:35.588Z,5.00
2022-11-26T03:02:53.788Z,5.00
2022-11-26T03:03:25.821Z,5.00
2022-11-26T03:03:43.258Z,5.00
2022-11-26T03:04:13.709Z,5.00
2022-11-26T03:04:34.479Z,5.00
2022-11-26T03:05:01.958Z,5.00
2022-11-26T03:05:33.736Z,5.00
2022-11-26T03:06:06.383Z,5.00
2022-11-26T03:06:35.989Z,5.00
2022-11-26T03:06:53.607Z,5.00
2022-11-26T03:07:25.884Z,5.00
2022-11-26T03:07:42.243Z,5.00
2022-11-26T03:08:14.516Z,5.00
2022-11-26T03:08:34.464Z,5.00
2022-11-26T03:09:01.642Z,5.00
2022-11-26T03:09:33.749Z,5.00
2022-11-26T03:10:23.814Z,5.00
2022-11-26T03:10:53.657Z,4.88
2022-11-26T03:11:26.606Z,4.88
2022-11-26T03:11:57.893Z,4.88
2022-11-26T03:12:30.649Z,4.88
2022-11-26T03:13:01.666Z,4.88
2022-11-26T03:13:34.650Z,4.88
2022-11-26T03:14:05.855Z,4.88
2022-11-26T03:14:35.734Z,4.88
2022-11-26T03:14:53.831Z,4.88
2022-11-26T03:15:25.857Z,4.88
2022-11-26T03:15:42.769Z,4.88
2022-11-26T03:16:13.792Z,4.88
2022-11-26T03:16:34.372Z,4.88
2022-11-26T03:17:01.798Z,4.88
2022-11-26T03:17:33.583Z,5.00
2022-11-26T03:18:06.857Z,5.00
2022-11-26T03:18:34.851Z,4.88
2022-11-26T03:18:53.761Z,4.88
2022-11-26T03:19:26.494Z,4.88
2022-11-26T03:19:57.644Z,4.88
2022-11-26T03:20:34.964Z,4.88
2022-11-26T03:21:01.815Z,4.88
2022-11-26T03:21:33.737Z,4.88
2022-11-26T03:22:05.924Z,4.88
2022-11-26T03:22:35.611Z,4.88
2022-11-26T03:22:53.864Z,4.88
2022-11-26T03:23:26.482Z,4.88
2022-11-26T03:23:57.569Z,4.88
2022-11-26T03:24:30.723Z,4.88
2022-11-26T03:25:01.947Z,4.88
2022-11-26T03:25:34.763Z,4.77
2022-11-26T03:26:05.694Z,4.77
2022-11-26T03:26:35.569Z,4.77
2022-11-26T03:26:54.092Z,4.77
2022-11-26T03:27:25.781Z,4.77
2022-11-26T03:27:43.092Z,4.77
2022-11-26T03:28:13.608Z,4.77
2022-11-26T03:28:34.490Z,4.77
2022-11-26T03:29:01.829Z,4.77
2022-11-26T03:29:33.776Z,4.77
2022-11-26T03:30:22.826Z,4.77
2022-11-26T03:30:53.716Z,4.77
2022-11-26T03:31:26.883Z,4.77
2022-11-26T03:31:58.097Z,4.77
2022-11-26T03:32:30.619Z,4.72
2022-11-26T03:33:02.044Z,4.72
2022-11-26T03:33:34.652Z,4.72
2022-11-26T03:34:21.649Z,4.72
2022-11-26T03:34:54.119Z,4.72
2022-11-26T03:35:25.977Z,4.72
2022-11-26T03:35:43.195Z,4.72
2022-11-26T03:36:13.656Z,4.61
2022-11-26T03:36:34.346Z,4.61
2022-11-26T03:37:01.817Z,4.61
2022-11-26T03:37:33.806Z,4.61
2022-11-26T03:38:06.736Z,4.50
2022-11-26T03:38:34.519Z,4.50
2022-11-26T03:38:53.751Z,4.50
2022-11-26T03:39:25.805Z,4.38
2022-11-26T03:39:42.264Z,4.38
2022-11-26T03:40:14.660Z,4.38
2022-11-26T03:40:34.327Z,4.38
2022-11-26T03:41:01.821Z,4.38
2022-11-26T03:41:33.827Z,4.38
2022-11-26T03:42:05.770Z,4.38
2022-11-26T03:42:34.489Z,4.38
2022-11-26T03:42:54.010Z,4.38
2022-11-26T03:43:26.834Z,4.38
2022-11-26T03:43:57.809Z,4.38
2022-11-26T03:44:30.720Z,4.27
2022-11-26T03:45:02.473Z,4.27
2022-11-26T03:45:34.967Z,4.27
2022-11-26T03:46:06.018Z,4.27
2022-11-26T03:46:37.730Z,4.27
2022-11-26T03:47:09.707Z,4.27
2022-11-26T03:47:35.101Z,4.27
2022-11-26T03:48:13.938Z,4.27
2022-11-26T03:48:34.789Z,4.27
2022-11-26T03:49:02.541Z,4.27
2022-11-26T03:49:34.849Z,4.27
2022-11-26T03:50:06.992Z,4.27
2022-11-26T03:50:34.305Z,4.27
2022-11-26T03:50:53.738Z,4.27
2022-11-26T03:51:25.783Z,4.27
2022-11-26T03:51:42.168Z,4.27
2022-11-26T03:52:14.388Z,4.22
2022-11-26T03:52:34.511Z,4.22
2022-11-26T03:53:18.732Z,4.22
2022-11-26T03:53:49.869Z,4.22
2022-11-26T03:54:35.200Z,4.22
2022-11-26T03:54:53.749Z,4.22
2022-11-26T03:55:25.840Z,4.22
2022-11-26T03:55:43.017Z,4.22
2022-11-26T03:56:13.758Z,4.22
2022-11-26T03:56:35.079Z,4.27
2022-11-26T03:57:02.651Z,4.22
2022-11-26T03:57:34.373Z,4.22
2022-11-26T03:58:06.686Z,4.22
2022-11-26T03:58:34.519Z,4.22
2022-11-26T03:58:53.953Z,4.22
2022-11-26T03:59:25.687Z,4.22
2022-11-26T03:59:42.617Z,4.22
2022-11-26T04:00:15.144Z,4.22
2022-11-26T04:00:34.359Z,4.22
2022-11-26T04:01:01.930Z,4.22
2022-11-26T04:01:33.729Z,4.22
2022-11-26T04:02:05.889Z,4.22
2022-11-26T04:02:34.574Z,4.22
2022-11-26T04:02:53.759Z,4.11
2022-11-26T04:03:26.902Z,4.00
2022-11-26T04:03:57.640Z,4.00
2022-11-26T04:04:30.549Z,4.00
2022-11-26T04:05:01.900Z,4.00
2022-11-26T04:05:34.457Z,4.00
2022-11-26T04:06:05.662Z,3.88
2022-11-26T04:06:36.485Z,3.88
2022-11-26T04:06:53.918Z,3.88
2022-11-26T04:07:25.908Z,3.77
2022-11-26T04:07:43.245Z,3.77
2022-11-26T04:08:13.614Z,3.77
2022-11-26T04:08:34.590Z,3.72
2022-11-26T04:09:01.796Z,3.72
2022-11-26T04:09:34.140Z,3.72
2022-11-26T04:10:06.772Z,3.72
2022-11-26T04:10:34.398Z,3.72
2022-11-26T04:10:53.883Z,3.72
2022-11-26T04:11:25.768Z,3.72
2022-11-26T04:11:42.362Z,3.61
2022-11-26T04:12:14.415Z,3.61
2022-11-26T04:12:34.555Z,3.61
2022-11-26T04:13:02.617Z,3.61
2022-11-26T04:13:33.870Z,3.61
2022-11-26T04:14:05.918Z,3.61
2022-11-26T04:14:34.362Z,3.61
2022-11-26T04:14:53.854Z,3.61
2022-11-26T04:15:26.686Z,3.61
2022-11-26T04:15:57.795Z,3.61
2022-11-26T04:16:30.548Z,3.61
2022-11-26T04:17:01.781Z,3.61
2022-11-26T04:17:33.868Z,3.61
2022-11-26T04:18:06.002Z,3.61
2022-11-26T04:18:35.367Z,3.61
2022-11-26T04:18:53.630Z,3.61
2022-11-26T04:19:25.761Z,3.72
2022-11-26T04:19:43.384Z,3.72
2022-11-26T04:20:13.924Z,3.72
2022-11-26T04:20:34.544Z,3.72
2022-11-26T04:21:01.684Z,3.72
2022-11-26T04:21:33.784Z,3.72
2022-11-26T04:22:06.948Z,3.72
2022-11-26T04:22:34.477Z,3.72
2022-11-26T04:22:53.820Z,3.72
2022-11-26T04:23:25.737Z,3.72
2022-11-26T04:23:42.362Z,3.72
2022-11-26T04:24:14.555Z,3.72
2022-11-26T04:24:35.254Z,3.72
2022-11-26T04:25:01.919Z,3.77
2022-11-26T04:25:33.680Z,3.88
2022-11-26T04:26:22.753Z,3.88
2022-11-26T04:26:53.804Z,3.88
2022-11-26T04:27:26.599Z,3.88
2022-11-26T04:27:57.788Z,3.88
2022-11-26T04:28:30.322Z,3.88
2022-11-26T04:29:01.863Z,3.77
2022-11-26T04:29:35.596Z,3.77
2022-11-26T04:30:06.031Z,3.72
2022-11-26T04:30:34.866Z,3.72
2022-11-26T04:30:53.984Z,3.72
2022-11-26T04:31:25.890Z,3.77
2022-11-26T04:31:42.406Z,3.77
2022-11-26T04:32:13.641Z,3.77
2022-11-26T04:32:35.149Z,3.77
2022-11-26T04:33:02.702Z,3.77
2022-11-26T04:33:34.305Z,3.77
2022-11-26T04:34:06.996Z,3.77
2022-11-26T04:34:34.534Z,3.77
2022-11-26T04:34:53.863Z,3.77
2022-11-26T04:35:25.982Z,3.77
2022-11-26T04:35:42.312Z,3.77
2022-11-26T04:36:14.626Z,3.77
2022-11-26T04:36:34.515Z,3.77
2022-11-26T04:37:01.773Z,3.72
2022-11-26T04:37:33.822Z,3.72
2022-11-26T04:38:05.697Z,3.72
2022-11-26T04:38:34.503Z,3.72
2022-11-26T04:38:53.758Z,3.61
2022-11-26T04:39:26.659Z,3.50
2022-11-26T04:39:57.669Z,3.50
2022-11-26T04:40:30.723Z,3.50
2022-11-26T04:41:01.764Z,3.50
2022-11-26T04:41:34.956Z,3.38
2022-11-26T04:42:05.690Z,3.38
2022-11-26T04:42:34.494Z,3.38
2022-11-26T04:42:53.846Z,3.38
2022-11-26T04:43:25.770Z,3.38
2022-11-26T04:43:42.283Z,3.38
2022-11-26T04:44:13.930Z,3.38
2022-11-26T04:44:34.479Z,3.38
2022-11-26T04:45:02.979Z,3.50
2022-11-26T04:45:33.897Z,3.50
2022-11-26T04:46:06.698Z,3.61
2022-11-26T04:46:34.302Z,3.61
2022-11-26T04:46:53.662Z,3.61
2022-11-26T04:47:25.852Z,3.61
2022-11-26T04:47:43.233Z,3.61
2022-11-26T04:48:14.797Z,3.72
2022-11-26T04:48:34.474Z,3.72
2022-11-26T04:49:01.768Z,3.88
2022-11-26T04:49:33.848Z,3.88
2022-11-26T04:50:06.028Z,4.11
2022-11-26T04:50:35.218Z,4.11
2022-11-26T04:50:53.698Z,4.11
2022-11-26T04:51:25.747Z,4.11
2022-11-26T04:51:42.965Z,4.11
2022-11-26T04:52:29.828Z,4.11
2022-11-26T04:53:01.718Z,4.11
2022-11-26T04:53:34.585Z,4.11
2022-11-26T04:54:09.933Z,4.22
2022-11-26T04:54:34.327Z,4.22
2022-11-26T04:54:54.539Z,4.22
2022-11-26T04:55:25.863Z,4.22
2022-11-26T04:55:42.185Z,4.22
2022-11-26T04:56:13.782Z,4.22
2022-11-26T04:56:34.499Z,4.27
2022-11-26T04:57:02.489Z,4.27
2022-11-26T04:57:33.714Z,4.38
2022-11-26T04:58:06.992Z,4.38
2022-11-26T04:58:34.530Z,4.38
2022-11-26T04:58:53.856Z,4.38
2022-11-26T04:59:25.889Z,4.27
2022-11-26T04:59:42.309Z,4.27
2022-11-26T05:00:14.826Z,4.22
2022-11-26T05:00:34.631Z,4.22
2022-11-26T05:01:02.005Z,4.11
2022-11-26T05:01:33.672Z,4.11
2022-11-26T05:02:05.845Z,4.11
2022-11-26T05:02:34.595Z,4.11
2022-11-26T05:02:53.913Z,4.11
2022-11-26T05:03:26.536Z,4.00
2022-11-26T05:03:57.709Z,4.00
2022-11-26T05:04:30.699Z,4.00
2022-11-26T05:05:02.041Z,4.00
2022-11-26T05:05:34.727Z,4.11
2022-11-26T05:06:05.893Z,4.11
2022-11-26T05:06:34.670Z,4.11
2022-11-26T05:06:53.858Z,4.11
2022-11-26T05:07:25.749Z,4.11
2022-11-26T05:07:42.388Z,4.22
2022-11-26T05:08:13.801Z,4.22
2022-11-26T05:08:34.309Z,4.22
2022-11-26T05:09:02.834Z,4.22
2022-11-26T05:09:33.798Z,4.22
2022-11-26T05:10:06.897Z,4.22
2022-11-26T05:10:34.518Z,4.22
2022-11-26T05:10:53.984Z,4.22
2022-11-26T05:11:25.951Z,4.22
2022-11-26T05:11:42.385Z,4.22
2022-11-26T05:12:14.636Z,4.22
2022-11-26T05:12:35.164Z,4.22
2022-11-26T05:13:01.668Z,4.27
2022-11-26T05:13:33.667Z,4.27
2022-11-26T05:14:06.360Z,4.27
2022-11-26T05:14:34.373Z,4.27
2022-11-26T05:14:53.623Z,4.27
2022-11-26T05:15:26.941Z,4.27
2022-11-26T05:15:57.923Z,4.27
2022-11-26T05:16:30.812Z,4.27
2022-11-26T05:17:01.707Z,4.27
2022-11-26T05:17:33.760Z,4.22
2022-11-26T05:18:05.903Z,4.22
2022-11-26T05:18:35.106Z,4.22
2022-11-26T05:18:53.825Z,4.22
2022-11-26T05:19:25.651Z,4.22
2022-11-26T05:19:42.956Z,4.22
2022-11-26T05:20:13.958Z,4.22
2022-11-26T05:20:34.428Z,4.22
2022-11-26T05:21:01.929Z,4.22
2022-11-26T05:21:33.681Z,4.22
2022-11-26T05:22:06.839Z,4.22
2022-11-26T05:22:34.527Z,4.22
2022-11-26T05:22:53.810Z,4.22
2022-11-26T05:23:26.687Z,4.27
2022-11-26T05:23:57.766Z,4.27
2022-11-26T05:24:30.715Z,4.27
2022-11-26T05:25:02.090Z,4.22
2022-11-26T05:25:35.146Z,4.22
2022-11-26T05:26:06.078Z,4.22
2022-11-26T05:26:34.510Z,4.22
2022-11-26T05:26:56.849Z,4.22
2022-11-26T05:27:25.885Z,4.22
2022-11-26T05:27:58.784Z,4.27
2022-11-26T05:28:29.758Z,4.27
2022-11-26T05:29:02.648Z,4.27
2022-11-26T05:29:33.899Z,4.27
2022-11-26T05:30:06.693Z,4.27
2022-11-26T05:30:34.443Z,4.27
2022-11-26T05:30:53.917Z,4.27
2022-11-26T05:31:25.944Z,4.27
2022-11-26T05:31:42.229Z,4.27
2022-11-26T05:32:14.408Z,4.27
2022-11-26T05:32:34.519Z,4.27
2022-11-26T05:33:02.125Z,4.27
2022-11-26T05:33:34.103Z,4.27
2022-11-26T05:34:06.025Z,4.27
2022-11-26T05:34:34.384Z,4.27
2022-11-26T05:34:58.640Z,4.27
2022-11-26T05:35:26.806Z,4.22
2022-11-26T05:35:57.915Z,4.22
2022-11-26T05:36:30.404Z,4.22
2022-11-26T05:37:01.727Z,4.22
2022-11-26T05:37:34.775Z,4.22
2022-11-26T05:38:05.954Z,4.22
2022-11-26T05:38:34.355Z,4.22
2022-11-26T05:39:09.615Z,4.22
2022-11-26T05:39:34.452Z,4.22
2022-11-26T05:39:58.708Z,4.22
2022-11-26T05:40:30.067Z,4.22
2022-11-26T05:41:02.700Z,4.22
2022-11-26T05:41:33.841Z,4.22
2022-11-26T05:42:09.344Z,4.22
2022-11-26T05:42:34.467Z,4.11
2022-11-26T05:42:53.705Z,4.11
2022-11-26T05:43:27.343Z,4.11
2022-11-26T05:43:58.068Z,4.00
2022-11-26T05:44:30.375Z,4.00
2022-11-26T05:45:01.951Z,4.00
2022-11-26T05:45:35.717Z,4.00
2022-11-26T05:46:06.078Z,4.00
2022-11-26T05:46:34.471Z,4.00
2022-11-26T05:46:53.712Z,4.00
2022-11-26T05:47:25.864Z,4.00
2022-11-26T05:47:42.222Z,4.00
2022-11-26T05:48:13.806Z,4.00
2022-11-26T05:48:34.560Z,4.00
2022-11-26T05:49:02.562Z,4.00
2022-11-26T05:49:33.724Z,4.00
2022-11-26T05:50:06.801Z,4.00
2022-11-26T05:50:35.271Z,4.00
2022-11-26T05:50:54.671Z,4.00
2022-11-26T05:51:25.765Z,4.00
2022-11-26T05:51:42.341Z,4.11
2022-11-26T05:52:14.683Z,4.11
2022-11-26T05:52:34.748Z,4.11
2022-11-26T05:53:01.908Z,4.11
2022-11-26T05:53:34.832Z,4.11
2022-11-26T05:54:05.988Z,4.11
2022-11-26T05:54:34.685Z,4.11
2022-11-26T05:54:53.837Z,4.11
2022-11-26T05:55:26.849Z,4.11
2022-11-26T05:55:57.838Z,4.11
2022-11-26T05:56:30.373Z,4.22
2022-11-26T05:57:01.879Z,4.22
2022-11-26T05:57:34.777Z,4.22
2022-11-26T05:58:05.960Z,4.22
2022-11-26T05:58:34.522Z,4.22
2022-11-26T05:58:53.914Z,4.22
2022-11-26T05:59:34.382Z,4.22
2022-11-26T05:59:58.748Z,4.22
2022-11-26T06:00:30.192Z,4.22
2022-11-26T06:01:34.962Z,4.22
2022-11-26T06:02:06.060Z,4.27
2022-11-26T06:02:34.699Z,4.27
2022-11-26T06:03:27.340Z,4.22
2022-11-26T06:04:13.759Z,4.22
2022-11-26T06:04:34.454Z,4.22
2022-11-26T06:05:18.659Z,4.22
2022-11-26T06:06:05.716Z,4.22
2022-11-26T06:06:34.672Z,4.22
2022-11-26T06:06:53.905Z,4.11
2022-11-26T06:07:34.634Z,4.11
2022-11-26T06:07:58.592Z,4.11
2022-11-26T06:08:29.880Z,4.11
2022-11-26T06:09:18.739Z,4.11
2022-11-26T06:10:05.975Z,4.22
2022-11-26T06:10:36.212Z,4.22
2022-11-26T06:11:09.783Z,4.22
2022-11-26T06:11:34.543Z,4.22
2022-11-26T06:12:30.652Z,4.22
2022-11-26T06:13:35.692Z,4.22
2022-11-26T06:14:05.747Z,4.22
2022-11-26T06:14:41.703Z,4.22
2022-11-26T06:15:35.685Z,4.22
2022-11-26T06:16:34.679Z,4.22
2022-11-26T06:17:33.888Z,4.27
2022-11-26T06:18:35.460Z,4.27
2022-11-26T06:19:34.547Z,4.27
2022-11-26T06:20:36.622Z,4.27
2022-11-26T06:21:34.590Z,4.38
2022-11-26T06:22:21.848Z,4.38
2022-11-26T06:23:10.838Z,4.38
2022-11-26T06:23:34.479Z,4.38
2022-11-26T06:24:30.400Z,4.38
2022-11-26T06:25:17.931Z,4.38
2022-11-26T06:26:05.964Z,4.27
2022-11-26T06:26:34.388Z,4.27
2022-11-26T06:26:53.699Z,4.27
2022-11-26T06:27:34.367Z,4.27
2022-11-26T06:27:58.511Z,4.38
2022-11-26T06:28:30.123Z,4.38
2022-11-26T06:29:34.694Z,4.38
2022-11-26T06:30:22.039Z,4.38
2022-11-26T06:31:10.930Z,4.38
2022-11-26T06:31:34.467Z,4.38
2022-11-26T06:32:30.565Z,4.50
2022-11-26T06:33:17.807Z,4.50